createdAt,value
2018-09-11T00:01:02.952Z,17.10
2018-09-11T00:03:31.149Z,17.10
2018-09-11T00:05:59.346Z,17.10
2018-09-11T00:08:27.563Z,17.00
2018-09-11T00:10:55.762Z,16.90
2018-09-11T00:13:23.963Z,16.90
2018-09-11T00:15:53.659Z,16.80
2018-09-11T00:18:21.840Z,16.80
2018-09-11T00:20:50.024Z,16.80
2018-09-11T00:23:18.226Z,16.90
2018-09-11T00:25:46.402Z,16.90
2018-09-11T00:28:14.583Z,16.80
2018-09-11T00:30:42.787Z,16.80
2018-09-11T00:33:10.991Z,16.80
2018-09-11T00:35:39.228Z,16.80
2018-09-11T00:38:07.692Z,16.90
2018-09-11T00:40:35.878Z,16.90
2018-09-11T00:45:55.514Z,16.90
2018-09-11T00:48:23.736Z,17.00
2018-09-11T00:50:51.935Z,17.00
2018-09-11T00:53:20.154Z,17.00
2018-09-11T00:55:48.776Z,17.10
2018-09-11T00:58:16.995Z,17.10
2018-09-11T01:00:45.192Z,17.10
2018-09-11T01:03:13.388Z,17.10
2018-09-11T01:05:41.591Z,17.00
2018-09-11T01:08:09.814Z,17.00
2018-09-11T01:10:38.048Z,16.90
2018-09-11T01:13:06.290Z,16.90
2018-09-11T01:15:34.495Z,16.90
2018-09-11T01:18:02.705Z,16.90
2018-09-11T01:20:30.918Z,17.00
2018-09-11T01:22:59.098Z,17.00
2018-09-11T01:25:27.282Z,17.10
2018-09-11T01:27:55.471Z,17.10
2018-09-11T01:30:23.978Z,17.10
2018-09-11T01:32:52.557Z,17.00
2018-09-11T01:35:21.508Z,16.90
2018-09-11T01:37:49.737Z,17.00
2018-09-11T01:40:17.982Z,17.00
2018-09-11T01:42:46.176Z,17.00
2018-09-11T01:45:14.363Z,16.90
2018-09-11T01:47:42.561Z,16.80
2018-09-11T01:50:10.764Z,16.80
2018-09-11T01:52:38.912Z,16.70
2018-09-11T01:55:07.091Z,16.80
2018-09-11T01:57:35.260Z,16.60
2018-09-11T02:00:03.434Z,16.60
2018-09-11T02:02:31.666Z,16.60
2018-09-11T02:04:59.869Z,16.50
2018-09-11T02:07:28.065Z,16.50
2018-09-11T02:09:56.254Z,16.50
2018-09-11T02:12:24.461Z,16.50
2018-09-11T02:14:52.677Z,16.40
2018-09-11T02:17:20.871Z,16.50
2018-09-11T02:19:49.093Z,16.40
2018-09-11T02:22:17.336Z,16.40
2018-09-11T02:24:45.561Z,16.30
2018-09-11T02:27:13.768Z,16.30
2018-09-11T02:29:42.042Z,16.30
2018-09-11T02:32:10.276Z,16.30
2018-09-11T02:34:38.435Z,16.30
2018-09-11T02:37:06.655Z,16.20
2018-09-11T02:39:34.882Z,16.30
2018-09-11T02:42:03.113Z,16.20
2018-09-11T02:44:31.307Z,16.30
2018-09-11T02:46:59.499Z,16.40
2018-09-11T02:49:27.698Z,16.40
2018-09-11T02:51:55.898Z,16.40
2018-09-11T02:54:24.114Z,16.40
2018-09-11T02:56:52.332Z,16.40
2018-09-11T02:59:20.512Z,16.40
2018-09-11T03:01:48.729Z,16.40
2018-09-11T03:04:16.927Z,16.50
2018-09-11T03:06:45.123Z,16.50
2018-09-11T03:09:13.323Z,16.50
2018-09-11T03:11:41.566Z,16.50
2018-09-11T03:14:09.756Z,16.40
2018-09-11T03:16:37.958Z,16.40
2018-09-11T03:19:06.368Z,16.40
2018-09-11T03:21:34.736Z,16.40
2018-09-11T03:24:02.957Z,16.30
2018-09-11T03:26:31.163Z,16.30
2018-09-11T03:28:59.995Z,16.30
2018-09-11T03:31:28.230Z,16.20
2018-09-11T03:33:56.435Z,16.20
2018-09-11T03:36:24.671Z,16.10
2018-09-11T03:38:52.835Z,16.10
2018-09-11T03:41:21.045Z,16.10
2018-09-11T03:43:49.234Z,16.10
2018-09-11T03:46:17.433Z,16.00
2018-09-11T03:48:45.637Z,16.00
2018-09-11T03:51:13.842Z,16.00
2018-09-11T03:53:42.047Z,15.90
2018-09-11T03:56:10.277Z,16.00
2018-09-11T03:58:38.507Z,15.90
2018-09-11T04:01:06.775Z,15.90
2018-09-11T04:03:34.995Z,16.00
2018-09-11T04:06:03.206Z,16.00
2018-09-11T04:08:31.441Z,16.10
2018-09-11T04:10:59.646Z,16.20
2018-09-11T04:13:27.861Z,16.10
2018-09-11T04:15:56.243Z,16.10
2018-09-11T04:18:24.461Z,16.10
2018-09-11T04:20:52.655Z,16.00
2018-09-11T04:23:20.849Z,16.00
2018-09-11T04:25:49.110Z,15.80
2018-09-11T04:28:17.328Z,15.80
2018-09-11T04:30:45.488Z,15.80
2018-09-11T04:33:13.697Z,15.90
2018-09-11T04:35:42.081Z,15.80
2018-09-11T04:38:10.302Z,15.80
2018-09-11T04:40:38.511Z,15.80
2018-09-11T04:43:06.772Z,15.80
2018-09-11T04:45:34.990Z,15.70
2018-09-11T04:48:03.401Z,15.50
2018-09-11T04:50:31.611Z,15.50
2018-09-11T04:52:59.770Z,15.50
2018-09-11T04:55:27.976Z,15.50
2018-09-11T04:57:56.212Z,15.60
2018-09-11T05:00:24.470Z,15.60
2018-09-11T05:02:52.675Z,15.70
2018-09-11T05:05:20.878Z,15.60
2018-09-11T05:07:49.126Z,15.60
2018-09-11T05:10:17.313Z,15.60
2018-09-11T05:12:45.507Z,15.70
2018-09-11T05:15:13.729Z,15.80
2018-09-11T05:17:42.179Z,15.70
2018-09-11T05:20:10.386Z,15.80
2018-09-11T05:22:38.590Z,15.70
2018-09-11T05:25:06.768Z,15.80
2018-09-11T05:27:35.004Z,15.90
2018-09-11T05:30:03.178Z,15.90
2018-09-11T05:32:31.377Z,15.90
2018-09-11T05:34:59.551Z,15.90
2018-09-11T05:37:27.766Z,15.90
2018-09-11T05:39:55.935Z,15.90
2018-09-11T05:42:24.181Z,15.90
2018-09-11T05:44:52.353Z,15.90
2018-09-11T05:47:20.524Z,15.90
2018-09-11T05:49:49.732Z,15.90
2018-09-11T05:52:18.955Z,16.00
2018-09-11T05:54:47.213Z,16.10
2018-09-11T05:57:15.414Z,16.20
2018-09-11T05:59:43.573Z,16.20
2018-09-11T06:02:11.819Z,16.20
2018-09-11T06:04:40.015Z,16.30
2018-09-11T06:07:08.195Z,16.30
2018-09-11T06:09:36.457Z,16.40
2018-09-11T06:12:04.652Z,16.40
2018-09-11T06:14:32.861Z,16.40
2018-09-11T06:17:01.109Z,16.40
2018-09-11T06:19:29.301Z,16.40
2018-09-11T06:21:57.459Z,16.40
2018-09-11T06:24:25.696Z,16.50
2018-09-11T06:26:53.883Z,16.50
2018-09-11T06:29:22.110Z,16.50
2018-09-11T06:31:50.318Z,16.60
2018-09-11T06:34:18.535Z,16.60
2018-09-11T06:36:46.725Z,16.70
2018-09-11T06:39:14.973Z,16.70
2018-09-11T06:41:43.167Z,16.70
2018-09-11T06:44:11.383Z,16.80
2018-09-11T06:46:39.561Z,16.90
2018-09-11T06:49:07.786Z,17.00
2018-09-11T06:51:35.973Z,17.00
2018-09-11T06:54:04.188Z,17.20
2018-09-11T06:56:32.396Z,17.10
2018-09-11T06:59:00.654Z,17.10
2018-09-11T07:01:28.840Z,17.10
2018-09-11T07:03:57.045Z,17.20
2018-09-11T07:06:25.289Z,17.20
2018-09-11T07:08:53.476Z,17.30
2018-09-11T07:11:21.710Z,17.30
2018-09-11T07:13:49.900Z,17.30
2018-09-11T07:16:18.092Z,17.30
2018-09-11T07:18:46.307Z,17.40
2018-09-11T07:21:14.537Z,17.50
2018-09-11T07:23:42.744Z,17.60
2018-09-11T07:26:11.006Z,17.70
2018-09-11T07:28:39.175Z,17.80
2018-09-11T07:31:07.598Z,17.90
2018-09-11T07:33:35.787Z,18.00
2018-09-11T07:36:04.051Z,18.10
2018-09-11T07:38:32.239Z,18.20
2018-09-11T07:41:00.477Z,18.30
2018-09-11T07:43:28.703Z,18.40
2018-09-11T07:45:56.938Z,18.60
2018-09-11T07:48:25.169Z,18.70
2018-09-11T07:50:53.357Z,18.70
2018-09-11T07:53:21.567Z,18.80
2018-09-11T07:55:49.970Z,19.00
2018-09-11T07:58:18.179Z,19.00
2018-09-11T08:00:46.385Z,19.10
2018-09-11T08:03:14.569Z,19.20
2018-09-11T08:05:42.869Z,19.20
2018-09-11T08:08:11.077Z,19.30
2018-09-11T08:10:39.259Z,19.50
2018-09-11T08:13:07.443Z,19.60
2018-09-11T08:15:35.644Z,19.50
2018-09-11T08:18:03.843Z,19.40
2018-09-11T08:20:32.041Z,19.50
2018-09-11T08:23:00.238Z,19.40
2018-09-11T08:25:28.477Z,19.20
2018-09-11T08:27:56.710Z,19.30
2018-09-11T08:30:24.898Z,19.40
2018-09-11T08:32:53.145Z,19.50
2018-09-11T08:35:21.427Z,19.50
2018-09-11T08:37:49.626Z,19.60
2018-09-11T08:40:17.821Z,19.70
2018-09-11T08:42:46.015Z,19.70
2018-09-11T08:45:14.230Z,19.80
2018-09-11T08:47:42.420Z,20.00
2018-09-11T08:50:10.595Z,20.00
2018-09-11T08:52:38.857Z,20.10
2018-09-11T08:55:07.073Z,20.00
2018-09-11T08:57:35.275Z,20.00
2018-09-11T09:00:03.456Z,20.00
2018-09-11T09:02:31.657Z,20.10
2018-09-11T09:04:59.874Z,20.10
2018-09-11T09:07:28.067Z,20.20
2018-09-11T09:09:56.280Z,20.30
2018-09-11T09:12:24.421Z,20.40
2018-09-11T09:14:52.609Z,20.50
2018-09-11T09:17:20.829Z,20.60
2018-09-11T09:19:49.038Z,20.60
2018-09-11T09:22:17.232Z,20.50
2018-09-11T09:24:45.409Z,20.40
2018-09-11T09:27:13.655Z,20.40
2018-09-11T09:29:41.792Z,20.40
2018-09-11T09:32:09.992Z,20.40
2018-09-11T09:34:38.162Z,20.40
2018-09-11T09:37:06.392Z,20.50
2018-09-11T09:39:34.531Z,20.50
2018-09-11T09:42:02.704Z,20.50
2018-09-11T09:44:30.898Z,20.60
2018-09-11T09:46:59.120Z,20.70
2018-09-11T09:49:27.297Z,20.70
2018-09-11T09:51:55.461Z,20.60
2018-09-11T09:54:23.640Z,20.70
2018-09-11T09:56:51.857Z,20.90
2018-09-11T09:59:20.040Z,21.00
2018-09-11T10:01:53.651Z,21.00
2018-09-11T10:04:21.849Z,21.10
2018-09-11T10:06:50.036Z,21.20
2018-09-11T10:09:18.199Z,21.30
2018-09-11T10:11:46.415Z,21.50
2018-09-11T10:14:14.523Z,21.60
2018-09-11T10:16:42.695Z,21.70
2018-09-11T10:19:10.917Z,21.70
2018-09-11T10:21:39.100Z,21.70
2018-09-11T10:24:07.255Z,21.70
2018-09-11T10:26:35.430Z,21.70
2018-09-11T10:29:03.635Z,21.80
2018-09-11T10:31:31.798Z,21.90
2018-09-11T10:33:59.988Z,22.00
2018-09-11T10:36:28.161Z,22.10
2018-09-11T10:38:56.377Z,22.20
2018-09-11T10:41:24.503Z,22.20
2018-09-11T10:43:52.846Z,22.30
2018-09-11T10:46:21.022Z,22.40
2018-09-11T10:48:49.238Z,22.40
2018-09-11T10:51:17.433Z,22.50
2018-09-11T10:53:45.590Z,22.40
2018-09-11T10:56:13.766Z,22.60
2018-09-11T10:58:41.952Z,22.70
2018-09-11T11:01:10.142Z,22.80
2018-09-11T11:03:38.308Z,22.90
2018-09-11T11:06:06.485Z,23.00
2018-09-11T11:08:34.662Z,22.90
2018-09-11T11:11:02.834Z,22.90
2018-09-11T11:13:31.019Z,23.00
2018-09-11T11:15:59.204Z,23.20
2018-09-11T11:18:27.383Z,23.70
2018-09-11T11:20:55.563Z,24.10
2018-09-11T11:23:23.773Z,24.40
2018-09-11T11:25:51.935Z,24.60
2018-09-11T11:28:20.129Z,24.90
2018-09-11T11:30:48.333Z,25.30
2018-09-11T11:33:16.517Z,25.50
2018-09-11T11:35:44.017Z,25.90
2018-09-11T11:38:12.213Z,26.70
2018-09-11T11:40:40.383Z,27.30
2018-09-11T11:43:08.560Z,27.50
2018-09-11T11:45:36.730Z,27.70
2018-09-11T11:48:04.991Z,27.50
2018-09-11T11:50:33.180Z,27.80
2018-09-11T11:53:01.393Z,28.00
2018-09-11T11:55:29.678Z,28.40
2018-09-11T11:57:59.408Z,28.40
2018-09-11T12:00:27.613Z,28.60
2018-09-11T12:02:55.795Z,28.70
2018-09-11T12:05:24.105Z,28.40
2018-09-11T12:07:52.294Z,28.90
2018-09-11T12:10:20.449Z,29.60
2018-09-11T12:12:48.669Z,29.80
2018-09-11T12:15:16.854Z,29.90
2018-09-11T12:17:45.122Z,30.00
2018-09-11T12:20:13.339Z,30.00
2018-09-11T12:22:41.693Z,29.60
2018-09-11T12:25:09.981Z,29.30
2018-09-11T12:27:38.122Z,29.90
2018-09-11T12:30:06.441Z,30.10
2018-09-11T12:32:34.654Z,29.70
2018-09-11T12:35:02.913Z,30.00
2018-09-11T12:37:31.078Z,29.70
2018-09-11T12:39:59.267Z,29.40
2018-09-11T12:42:27.444Z,29.40
2018-09-11T12:44:55.633Z,29.40
2018-09-11T12:47:24.196Z,29.50
2018-09-11T12:49:52.023Z,29.80
2018-09-11T12:52:20.212Z,30.10
2018-09-11T12:54:48.380Z,30.40
2018-09-11T12:57:16.574Z,30.30
2018-09-11T12:59:44.738Z,30.30
2018-09-11T13:02:12.933Z,30.60
2018-09-11T13:04:41.100Z,30.90
2018-09-11T13:07:09.302Z,30.60
2018-09-11T13:09:37.654Z,30.40
2018-09-11T13:12:05.675Z,30.50
2018-09-11T13:14:33.939Z,30.70
2018-09-11T13:17:02.127Z,30.90
2018-09-11T13:19:30.332Z,31.50
2018-09-11T13:21:58.487Z,31.30
2018-09-11T13:24:27.523Z,31.40
2018-09-11T13:26:55.714Z,31.90
2018-09-11T13:29:23.895Z,32.50
2018-09-11T13:31:52.104Z,32.50
2018-09-11T13:34:20.324Z,32.10
2018-09-11T13:36:48.542Z,31.80
2018-09-11T13:39:16.743Z,32.00
2018-09-11T13:41:44.933Z,32.00
2018-09-11T13:44:13.139Z,32.20
2018-09-11T13:46:41.292Z,32.00
2018-09-11T13:49:09.491Z,31.90
2018-09-11T13:51:37.651Z,32.10
2018-09-11T13:54:05.888Z,32.00
2018-09-11T13:56:34.146Z,31.90
2018-09-11T13:59:06.465Z,32.00
2018-09-11T14:01:34.594Z,32.60
2018-09-11T14:04:03.102Z,32.60
2018-09-11T14:06:31.291Z,32.30
2018-09-11T14:08:59.503Z,32.40
2018-09-11T14:11:27.711Z,32.70
2018-09-11T14:13:55.883Z,32.80
2018-09-11T14:16:24.087Z,32.80
2018-09-11T14:18:52.272Z,32.70
2018-09-11T14:21:20.443Z,32.80
2018-09-11T14:23:48.608Z,33.00
2018-09-11T14:26:16.140Z,33.50
2018-09-11T14:28:43.662Z,33.50
2018-09-11T14:31:11.890Z,33.50
2018-09-11T14:33:40.073Z,33.70
2018-09-11T14:36:08.256Z,33.60
2018-09-11T14:38:36.415Z,33.60
2018-09-11T14:41:04.592Z,33.80
2018-09-11T14:43:32.782Z,33.60
2018-09-11T14:46:00.973Z,33.40
2018-09-11T14:48:30.154Z,33.40
2018-09-11T14:50:58.342Z,33.30
2018-09-11T14:53:26.512Z,33.40
2018-09-11T14:55:54.709Z,33.50
2018-09-11T14:58:22.913Z,33.70
2018-09-11T15:00:51.337Z,34.00
2018-09-11T15:03:19.511Z,34.00
2018-09-11T15:05:47.749Z,34.20
2018-09-11T15:08:15.942Z,34.00
2018-09-11T15:10:44.155Z,33.80
2018-09-11T15:13:12.351Z,33.60
2018-09-11T15:15:40.541Z,33.50
2018-09-11T15:18:08.679Z,33.20
2018-09-11T15:20:36.871Z,32.90
2018-09-11T15:23:05.048Z,32.90
2018-09-11T15:25:33.282Z,32.50
2018-09-11T15:28:01.458Z,32.90
2018-09-11T15:30:29.686Z,33.50
2018-09-11T15:32:57.936Z,33.80
2018-09-11T15:35:26.240Z,33.70
2018-09-11T15:37:54.423Z,33.30
2018-09-11T15:40:22.601Z,33.20
2018-09-11T15:42:50.796Z,33.40
2018-09-11T15:45:18.979Z,33.90
2018-09-11T15:47:47.142Z,34.00
2018-09-11T15:50:15.338Z,33.90
2018-09-11T15:52:43.529Z,34.20
2018-09-11T15:55:11.018Z,34.20
2018-09-11T15:57:38.511Z,34.60
2018-09-11T16:00:06.063Z,35.10
2018-09-11T16:02:33.581Z,35.50
2018-09-11T16:05:01.104Z,35.40
2018-09-11T16:07:28.594Z,35.10
2018-09-11T16:09:56.095Z,34.40
2018-09-11T16:12:23.632Z,33.80
2018-09-11T16:14:51.798Z,33.80
2018-09-11T16:17:19.997Z,34.00
2018-09-11T16:19:48.250Z,33.40
2018-09-11T16:22:16.426Z,32.90
2018-09-11T16:24:44.613Z,32.30
2018-09-11T16:27:12.789Z,31.80
2018-09-11T16:29:41.270Z,31.20
2018-09-11T16:32:09.430Z,30.60
2018-09-11T16:34:37.607Z,30.20
2018-09-11T16:37:05.767Z,30.00
2018-09-11T16:39:33.954Z,30.20
2018-09-11T16:42:02.143Z,30.10
2018-09-11T16:44:30.350Z,30.10
2018-09-11T16:46:58.527Z,30.00
2018-09-11T16:49:26.722Z,29.80
2018-09-11T16:51:54.914Z,29.60
2018-09-11T16:54:23.420Z,29.20
2018-09-11T16:56:51.647Z,29.10
2018-09-11T16:59:19.859Z,28.90
2018-09-11T17:01:48.089Z,28.60
2018-09-11T17:04:16.262Z,28.40
2018-09-11T17:06:44.444Z,28.30
2018-09-11T17:09:12.639Z,28.20
2018-09-11T17:11:40.838Z,28.10
2018-09-11T17:14:10.256Z,28.10
2018-09-11T17:16:38.461Z,28.00
2018-09-11T17:19:06.719Z,27.90
2018-09-11T17:21:34.887Z,27.80
2018-09-11T17:24:03.082Z,27.90
2018-09-11T17:26:31.278Z,27.80
2018-09-11T17:28:59.447Z,27.70
2018-09-11T17:31:27.654Z,27.70
2018-09-11T17:33:55.838Z,27.50
2018-09-11T17:36:24.007Z,27.50
2018-09-11T17:38:52.191Z,27.40
2018-09-11T17:41:20.364Z,27.30
2018-09-11T17:43:48.577Z,27.30
2018-09-11T17:46:16.722Z,27.20
2018-09-11T17:48:44.902Z,27.20
2018-09-11T17:51:13.067Z,27.00
2018-09-11T17:53:41.254Z,27.00
2018-09-11T17:56:09.444Z,27.00
2018-09-11T17:58:37.665Z,27.10
2018-09-11T18:01:05.871Z,27.00
2018-09-11T18:03:34.060Z,27.10
2018-09-11T18:06:02.287Z,26.90
2018-09-11T18:08:30.481Z,26.90
2018-09-11T18:10:58.681Z,27.00
2018-09-11T18:16:17.509Z,26.90
2018-09-11T18:18:45.729Z,27.00
2018-09-11T18:21:14.132Z,26.90
2018-09-11T18:23:42.367Z,26.70
2018-09-11T18:26:10.730Z,26.60
2018-09-11T18:28:38.984Z,26.40
2018-09-11T18:31:07.243Z,26.40
2018-09-11T18:33:35.491Z,26.40
2018-09-11T18:36:03.718Z,26.40
2018-09-11T18:38:32.015Z,26.20
2018-09-11T18:41:00.230Z,26.10
2018-09-11T18:43:28.433Z,26.00
2018-09-11T18:45:56.698Z,26.00
2018-09-11T18:48:25.081Z,25.90
2018-09-11T18:50:53.430Z,25.80
2018-09-11T18:53:21.665Z,25.80
2018-09-11T18:55:49.905Z,25.70
2018-09-11T18:58:18.140Z,25.70
2018-09-11T19:00:46.369Z,25.80
2018-09-11T19:03:14.621Z,25.80
2018-09-11T19:05:42.936Z,25.90
2018-09-11T19:08:11.119Z,25.90
2018-09-11T19:10:39.338Z,26.00
2018-09-11T19:13:07.545Z,25.90
2018-09-11T19:15:35.785Z,25.80
2018-09-11T19:18:04.000Z,25.70
2018-09-11T19:20:32.172Z,25.70
2018-09-11T19:23:00.346Z,25.70
2018-09-11T19:25:28.638Z,25.60
2018-09-11T19:27:56.914Z,25.60
2018-09-11T19:30:25.154Z,25.60
2018-09-11T19:32:53.347Z,25.60
2018-09-11T19:35:21.577Z,25.40
2018-09-11T19:37:49.839Z,25.40
2018-09-11T19:40:18.063Z,25.40
2018-09-11T19:42:46.300Z,25.30
2018-09-11T19:45:14.527Z,25.10
2018-09-11T19:47:42.771Z,25.10
2018-09-11T19:50:11.127Z,25.10
2018-09-11T19:52:39.308Z,25.10
2018-09-11T19:55:07.500Z,24.90
2018-09-11T19:57:36.577Z,24.90
2018-09-11T20:00:05.120Z,24.80
2018-09-11T20:02:33.361Z,24.70
2018-09-11T20:05:01.745Z,24.50
2018-09-11T20:07:29.945Z,24.50
2018-09-11T20:09:58.581Z,24.40
2018-09-11T20:12:26.757Z,24.30
2018-09-11T20:14:54.967Z,24.20
2018-09-11T20:17:23.166Z,24.00
2018-09-11T20:19:51.431Z,24.00
2018-09-11T20:22:19.635Z,23.90
2018-09-11T20:24:47.861Z,23.90
2018-09-11T20:27:16.572Z,23.80
2018-09-11T20:29:44.791Z,23.70
2018-09-11T20:32:13.046Z,23.60
2018-09-11T20:34:41.292Z,23.50
2018-09-11T20:37:09.455Z,23.50
2018-09-11T20:39:37.632Z,23.50
2018-09-11T20:42:05.803Z,23.40
2018-09-11T20:44:34.034Z,23.30
2018-09-11T20:47:02.226Z,23.30
2018-09-11T20:49:30.400Z,23.20
2018-09-11T20:51:58.612Z,23.30
2018-09-11T20:54:26.815Z,23.20
2018-09-11T20:56:55.001Z,23.20
2018-09-11T20:59:23.179Z,23.20
2018-09-11T21:01:51.397Z,23.10
2018-09-11T21:04:19.638Z,23.30
2018-09-11T21:06:47.823Z,23.30
2018-09-11T21:09:16.011Z,23.30
2018-09-11T21:11:44.270Z,23.30
2018-09-11T21:14:12.532Z,23.50
2018-09-11T21:16:40.715Z,23.40
2018-09-11T21:19:08.937Z,23.50
2018-09-11T21:21:37.126Z,23.50
2018-09-11T21:24:06.161Z,23.60
2018-09-11T21:26:34.356Z,23.50
2018-09-11T21:29:02.568Z,23.50
2018-09-11T21:31:30.767Z,23.30
2018-09-11T21:33:59.040Z,23.30
2018-09-11T21:36:27.256Z,23.30
2018-09-11T21:38:55.443Z,23.20
2018-09-11T21:41:23.638Z,23.20
2018-09-11T21:43:51.928Z,23.20
2018-09-11T21:46:20.185Z,23.10
2018-09-11T21:48:48.359Z,23.10
2018-09-11T21:51:17.255Z,23.10
2018-09-11T21:53:45.474Z,23.10
2018-09-11T21:56:13.697Z,23.10
2018-09-11T21:58:41.871Z,23.00
2018-09-11T22:01:15.385Z,23.00
2018-09-11T22:03:43.661Z,23.00
2018-09-11T22:06:11.898Z,22.90
2018-09-11T22:08:40.146Z,22.90
2018-09-11T22:11:08.385Z,22.90
2018-09-11T22:13:36.569Z,22.80
2018-09-11T22:16:04.746Z,22.70
2018-09-11T22:18:32.933Z,22.60
2018-09-11T22:21:01.161Z,22.60
2018-09-11T22:23:29.319Z,22.60
2018-09-11T22:25:57.536Z,22.50
2018-09-11T22:28:25.883Z,22.50
2018-09-11T22:30:54.083Z,22.50
2018-09-11T22:33:22.312Z,22.40
2018-09-11T22:35:50.491Z,22.50
2018-09-11T22:38:18.692Z,22.40
2018-09-11T22:40:47.402Z,22.30
2018-09-11T22:43:15.923Z,22.40
2018-09-11T22:45:44.059Z,22.40
2018-09-11T22:48:12.291Z,22.30
2018-09-11T22:50:40.482Z,22.30
2018-09-11T22:53:08.701Z,22.30
2018-09-11T22:55:36.907Z,22.20
2018-09-11T22:58:05.140Z,22.20
2018-09-11T23:00:33.361Z,22.20
2018-09-11T23:03:01.523Z,22.20
2018-09-11T23:05:29.714Z,22.10
2018-09-11T23:07:57.898Z,22.10
2018-09-11T23:10:26.098Z,22.10
2018-09-11T23:12:54.347Z,22.20
2018-09-11T23:15:22.539Z,22.20
2018-09-11T23:17:50.751Z,22.10
2018-09-11T23:20:19.030Z,22.00
2018-09-11T23:22:47.211Z,21.90
2018-09-11T23:25:15.651Z,21.90
2018-09-11T23:27:44.355Z,21.90
2018-09-11T23:30:12.616Z,21.90
2018-09-11T23:32:40.949Z,21.80
2018-09-11T23:35:09.151Z,21.80
2018-09-11T23:37:37.346Z,21.70
2018-09-11T23:40:05.956Z,21.70
2018-09-11T23:42:34.138Z,21.60
2018-09-11T23:45:02.358Z,21.50
2018-09-11T23:47:30.548Z,21.50
2018-09-11T23:49:58.750Z,21.40
2018-09-11T23:52:26.966Z,21.40
2018-09-11T23:54:55.171Z,21.40
2018-09-11T23:57:23.386Z,21.40
2018-09-11T23:59:51.600Z,21.50
